Time,TemperatureF,DewpointF,PressureIn,WindDirection,WindDirectionDegrees,WindSpeedMPH,WindSpeedGustMPH,Humidity,HourlyPrecipIn,Conditions,Clouds,dailyrainin,SoftwareType,DateUTC
2013-04-20 00:01:00,64.6,62.2,29.61,South,173,3.0,19.0,92,0.00,,,0.00,WeatherCatV1.15B25,2013-04-20 04:01:00,
2013-04-20 00:06:00,64.5,62.1,29.61,NW,309,11.0,11.0,92,0.00,,,0.00,WeatherCatV1.15B25,2013-04-20 04:06:00,
2013-04-20 00:11:00,64.5,62.1,29.61,SSE,156,5.0,12.0,92,0.00,,,0.00,WeatherCatV1.15B25,2013-04-20 04:11:00,
2013-04-20 00:16:00,64.4,62.0,29.61,SE,133,11.0,11.0,92,0.00,,,0.00,WeatherCatV1.15B25,2013-04-20 04:16:00,
2013-04-20 00:21:00,64.3,62.2,29.61,SSE,157,10.0,10.0,93,0.00,,,0.00,WeatherCatV1.15B25,2013-04-20 04:21:00,
2013-04-20 00:26:00,64.2,61.8,29.61,SE,135,5.0,11.0,92,0.00,,,0.00,WeatherCatV1.15B25,2013-04-20 04:26:00,
2013-04-20 00:31:00,64.2,61.8,29.61,SE,136,6.0,10.0,92,0.00,,,0.00,WeatherCatV1.15B25,2013-04-20 04:31:00,
2013-04-20 00:36:00,64.1,61.7,29.61,SE,145,7.0,12.0,92,0.00,,,0.00,WeatherCatV1.15B25,2013-04-20 04:36:00,
2013-04-20 00:41:00,64.1,62.0,29.61,SE,146,11.0,11.0,93,0.00,,,0.00,WeatherCatV1.15B25,2013-04-20 04:41:00,
2013-04-20 00:46:00,64.0,61.9,29.61,SSW,196,1.0,14.0,93,0.00,,,0.00,WeatherCatV1.15B25,2013-04-20 04:46:00,
2013-04-20 00:51:00,63.8,61.7,29.61,SSE,148,5.0,14.0,93,0.00,,,0.00,WeatherCatV1.15B25,2013-04-20 04:51:00,
2013-04-20 00:56:00,63.8,61.7,29.60,SSE,152,9.0,13.0,93,0.00,,,0.00,WeatherCatV1.15B25,2013-04-20 04:56:00,
2013-04-20 01:01:00,63.8,61.7,29.59,ESE,104,7.0,10.0,93,0.00,,,0.00,WeatherCatV1.15B25,2013-04-20 05:01:00,
2013-04-20 01:06:00,63.9,61.8,29.60,ESE,122,8.0,18.0,93,0.00,,,0.00,WeatherCatV1.15B25,2013-04-20 05:06:00,
2013-04-20 01:11:00,63.9,61.8,29.60,SSW,199,3.0,13.0,93,0.00,,,0.00,WeatherCatV1.15B25,2013-04-20 05:11:00,
2013-04-20 01:16:00,63.8,61.4,29.60,SE,134,7.0,12.0,92,0.00,,,0.00,WeatherCatV1.15B25,2013-04-20 05:16:00,
2013-04-20 01:21:00,63.7,61.3,29.59,SSE,152,4.0,11.0,92,0.00,,,0.00,WeatherCatV1.15B25,2013-04-20 05:21:00,
2013-04-20 01:26:00,63.5,61.4,29.59,SSE,164,5.0,6.0,93,0.00,,,0.00,WeatherCatV1.15B25,2013-04-20 05:26:00,
2013-04-20 01:31:00,63.3,61.2,29.60,SE,138,7.0,11.0,93,0.00,,,0.00,WeatherCatV1.15B25,2013-04-20 05:31:00,
2013-04-20 01:36:00,63.3,61.2,29.60,SE,144,6.0,8.0,93,0.00,,,0.00,WeatherCatV1.15B25,2013-04-20 05:36:00,
2013-04-20 01:41:00,63.2,61.1,29.59,South,186,4.0,15.0,93,0.00,,,0.00,WeatherCatV1.15B25,2013-04-20 05:41:00,
2013-04-20 01:46:00,63.1,61.0,29.60,SSE,161,11.0,11.0,93,0.00,,,0.00,WeatherCatV1.15B25,2013-04-20 05:46:00,
2013-04-20 01:51:00,63.0,60.9,29.59,WSW,242,4.0,7.0,93,0.00,,,0.00,WeatherCatV1.15B25,2013-04-20 05:51:00,
2013-04-20 01:56:00,62.9,60.8,29.59,SSE,163,2.0,14.0,93,0.00,,,0.00,WeatherCatV1.15B25,2013-04-20 05:56:00,
2013-04-20 02:01:00,62.8,60.7,29.58,SSE,161,3.0,9.0,93,0.00,,,0.00,WeatherCatV1.15B25,2013-04-20 06:01:00,
2013-04-20 02:06:00,62.6,60.5,29.59,SSE,156,6.0,11.0,93,0.00,,,0.00,WeatherCatV1.15B25,2013-04-20 06:06:00,
2013-04-20 02:11:00,62.6,60.5,29.59,SSE,163,5.0,10.0,93,0.00,,,0.00,WeatherCatV1.15B25,2013-04-20 06:11:00,
2013-04-20 02:16:00,62.5,60.4,29.59,SE,133,7.0,15.0,93,0.00,,,0.00,WeatherCatV1.15B25,2013-04-20 06:16:00,
2013-04-20 02:21:00,62.4,60.3,29.59,SW,226,1.0,10.0,93,0.00,,,0.00,WeatherCatV1.15B25,2013-04-20 06:21:00,
2013-04-20 02:26:00,62.3,60.5,29.58,SE,134,7.0,7.0,94,0.00,,,0.00,WeatherCatV1.15B25,2013-04-20 06:26:00,
2013-04-20 02:31:00,62.2,60.4,29.58,SSE,167,3.0,9.0,94,0.00,,,0.00,WeatherCatV1.15B25,2013-04-20 06:31:00,
2013-04-20 02:36:00,62.1,60.3,29.58,SE,146,4.0,9.0,94,0.00,,,0.00,WeatherCatV1.15B25,2013-04-20 06:36:00,
2013-04-20 02:41:00,62.1,60.3,29.57,South,175,0.0,7.0,94,0.00,,,0.00,WeatherCatV1.15B25,2013-04-20 06:41:00,
2013-04-20 02:46:00,62.0,60.2,29.56,South,175,1.0,7.0,94,0.00,,,0.00,WeatherCatV1.15B25,2013-04-20 06:46:00,
2013-04-20 02:51:00,61.9,60.2,29.56,SSW,212,6.0,9.0,94,0.00,,,0.00,WeatherCatV1.15B25,2013-04-20 06:51:00,
2013-04-20 02:56:00,61.9,60.2,29.56,SE,134,3.0,6.0,94,0.00,,,0.00,WeatherCatV1.15B25,2013-04-20 06:56:00,
2013-04-20 03:01:00,61.9,60.2,29.56,SSE,156,2.0,7.0,94,0.00,,,0.00,WeatherCatV1.15B25,2013-04-20 07:01:00,
2013-04-20 03:02:00,61.9,60.2,29.56,South,184,3.0,5.0,94,0.00,,,0.00,WeatherCatV1.15B25,2013-04-20 07:02:00,
2013-04-20 03:07:00,61.8,59.8,29.56,SSE,148,5.0,8.0,93,0.00,,,0.00,WeatherCatV1.15B25,2013-04-20 07:07:00,
2013-04-20 03:12:00,61.8,59.8,29.56,SSE,154,4.0,5.0,93,0.00,,,0.00,WeatherCatV1.15B25,2013-04-20 07:12:00,
2013-04-20 03:17:00,61.7,59.7,29.56,SE,137,4.0,9.0,93,0.00,,,0.00,WeatherCatV1.15B25,2013-04-20 07:17:00,
2013-04-20 03:22:00,61.7,59.7,29.56,South,180,7.0,13.0,93,0.00,,,0.00,WeatherCatV1.15B25,2013-04-20 07:22:00,
2013-04-20 03:27:00,61.6,59.6,29.56,SE,144,0.0,7.0,93,0.00,,,0.00,WeatherCatV1.15B25,2013-04-20 07:27:00,
2013-04-20 03:32:00,61.6,59.6,29.56,SE,144,1.0,7.0,93,0.00,,,0.00,WeatherCatV1.15B25,2013-04-20 07:32:00,
2013-04-20 03:37:00,61.5,59.5,29.56,SSE,153,5.0,12.0,93,0.00,,,0.00,WeatherCatV1.15B25,2013-04-20 07:37:00,
2013-04-20 03:42:00,61.5,59.5,29.56,South,188,1.0,8.0,93,0.00,,,0.00,WeatherCatV1.15B25,2013-04-20 07:42:00,
2013-04-20 03:47:00,61.6,59.6,29.56,SSE,159,2.0,5.0,93,0.00,,,0.00,WeatherCatV1.15B25,2013-04-20 07:47:00,
2013-04-20 03:52:00,61.6,59.6,29.55,SSE,161,4.0,5.0,93,0.00,,,0.00,WeatherCatV1.15B25,2013-04-20 07:52:00,
2013-04-20 03:57:00,61.6,59.9,29.56,SSE,155,1.0,3.0,94,0.00,,,0.00,WeatherCatV1.15B25,2013-04-20 07:57:00,
2013-04-20 04:02:00,61.5,59.8,29.55,SSE,163,2.0,9.0,94,0.00,,,0.00,WeatherCatV1.15B25,2013-04-20 08:02:00,
2013-04-20 04:07:00,61.5,59.8,29.56,SSE,168,7.0,7.0,94,0.00,,,0.00,WeatherCatV1.15B25,2013-04-20 08:07:00,
2013-04-20 04:12:00,61.4,59.7,29.56,SE,126,1.0,5.0,94,0.00,,,0.00,WeatherCatV1.15B25,2013-04-20 08:12:00,
2013-04-20 04:17:00,61.4,59.7,29.56,South,180,6.0,8.0,94,0.00,,,0.00,WeatherCatV1.15B25,2013-04-20 08:17:00,
2013-04-20 04:22:00,61.3,59.6,29.56,South,179,1.0,5.0,94,0.00,,,0.00,WeatherCatV1.15B25,2013-04-20 08:22:00,
2013-04-20 04:27:00,61.3,59.6,29.56,West,265,0.0,7.0,94,0.00,,,0.00,WeatherCatV1.15B25,2013-04-20 08:27:00,
2013-04-20 04:32:00,61.2,59.5,29.56,SSE,153,4.0,5.0,94,0.00,,,0.00,WeatherCatV1.15B25,2013-04-20 08:32:00,
2013-04-20 04:37:00,61.1,59.4,29.57,South,184,3.0,3.0,94,0.00,,,0.00,WeatherCatV1.15B25,2013-04-20 08:37:00,
2013-04-20 04:42:00,61.1,59.7,29.57,SSE,160,3.0,6.0,95,0.00,,,0.00,WeatherCatV1.15B25,2013-04-20 08:42:00,
2013-04-20 04:47:00,61.0,59.6,29.57,South,171,0.0,2.0,95,0.00,,,0.00,WeatherCatV1.15B25,2013-04-20 08:47:00,
2013-04-20 04:52:00,60.3,58.3,29.59,WSW,251,3.0,5.0,93,0.00,,,0.00,WeatherCatV1.15B25,2013-04-20 08:52:00,
2013-04-20 04:57:00,58.5,55.3,29.59,WNW,285,1.0,7.0,89,0.00,,,0.00,WeatherCatV1.15B25,2013-04-20 08:57:00,
2013-04-20 05:02:00,56.9,54.3,29.59,West,279,1.0,4.0,91,0.00,,,0.00,WeatherCatV1.15B25,2013-04-20 09:02:00,
2013-04-20 05:07:00,56.0,53.7,29.59,SW,227,0.0,0.0,92,0.00,,,0.00,WeatherCatV1.15B25,2013-04-20 09:07:00,
2013-04-20 05:12:00,55.3,53.0,29.60,West,273,0.0,0.0,92,0.00,,,0.00,WeatherCatV1.15B25,2013-04-20 09:12:00,
2013-04-20 05:17:00,54.9,52.9,29.60,West,264,3.0,6.0,93,0.00,,,0.00,WeatherCatV1.15B25,2013-04-20 09:17:00,
2013-04-20 05:22:00,54.5,52.8,29.61,NNE,28,2.0,4.0,94,0.00,,,0.00,WeatherCatV1.15B25,2013-04-20 09:22:00,
2013-04-20 05:27:00,54.2,52.5,29.61,WSW,248,2.0,4.0,94,0.00,,,0.00,WeatherCatV1.15B25,2013-04-20 09:27:00,
2013-04-20 05:32:00,54.0,52.3,29.61,SW,221,1.0,2.0,94,0.00,,,0.00,WeatherCatV1.15B25,2013-04-20 09:32:00,
2013-04-20 05:37:00,53.7,52.0,29.60,WSW,242,0.0,4.0,94,0.00,,,0.00,WeatherCatV1.15B25,2013-04-20 09:37:00,
2013-04-20 05:42:00,53.6,52.2,29.60,WSW,238,0.0,2.0,95,0.00,,,0.00,WeatherCatV1.15B25,2013-04-20 09:42:00,
2013-04-20 05:47:00,53.4,52.0,29.61,SSW,202,1.0,2.0,95,0.00,,,0.00,WeatherCatV1.15B25,2013-04-20 09:47:00,
2013-04-20 05:52:00,53.2,51.8,29.60,SSW,209,0.0,0.0,95,0.00,,,0.00,WeatherCatV1.15B25,2013-04-20 09:52:00,
2013-04-20 05:57:00,53.1,51.7,29.61,ENE,75,1.0,3.0,95,0.00,,,0.00,WeatherCatV1.15B25,2013-04-20 09:57:00,
2013-04-20 06:02:00,53.0,51.6,29.62,South,176,2.0,3.0,95,0.00,,,0.00,WeatherCatV1.15B25,2013-04-20 10:02:00,
2013-04-20 06:07:00,52.9,51.5,29.63,WSW,244,1.0,2.0,95,0.00,,,0.00,WeatherCatV1.15B25,2013-04-20 10:07:00,
2013-04-20 06:12:00,52.9,51.8,29.63,WSW,251,0.0,0.0,96,0.00,,,0.00,WeatherCatV1.15B25,2013-04-20 10:12:00,
2013-04-20 06:17:00,52.8,51.7,29.63,SSW,213,1.0,2.0,96,0.00,,,0.00,WeatherCatV1.15B25,2013-04-20 10:17:00,
2013-04-20 06:22:00,52.7,51.6,29.64,WSW,244,0.0,2.0,96,0.00,,,0.00,WeatherCatV1.15B25,2013-04-20 10:22:00,
2013-04-20 06:27:00,52.4,51.0,29.64,SW,236,1.0,2.0,95,0.00,,,0.00,WeatherCatV1.15B25,2013-04-20 10:27:00,
2013-04-20 06:32:00,52.2,50.8,29.64,West,262,1.0,2.0,95,0.00,,,0.00,WeatherCatV1.15B25,2013-04-20 10:32:00,
2013-04-20 06:37:00,51.9,50.5,29.65,WSW,254,1.0,5.0,95,0.00,,,0.00,WeatherCatV1.15B25,2013-04-20 10:37:00,
2013-04-20 06:40:00,51.8,50.4,29.66,West,265,3.0,4.0,95,0.00,,,0.00,WeatherCatV1.15B25,2013-04-20 10:40:00,
2013-04-20 06:45:00,51.8,50.7,29.66,West,265,1.0,4.0,96,0.00,,,0.00,WeatherCatV1.15B25,2013-04-20 10:45:00,
2013-04-20 06:50:00,51.2,49.5,29.67,South,174,1.0,11.0,94,0.00,,,0.00,WeatherCatV1.15B25,2013-04-20 10:50:00,
2013-04-20 06:55:00,50.8,49.1,29.67,WNW,298,0.0,6.0,94,0.00,,,0.00,WeatherCatV1.15B25,2013-04-20 10:55:00,
2013-04-20 07:00:00,50.0,47.8,29.67,SE,133,0.0,5.0,92,0.00,,,0.00,WeatherCatV1.15B25,2013-04-20 11:00:00,
2013-04-20 07:05:00,49.5,47.6,29.67,West,264,0.0,3.0,93,0.00,,,0.00,WeatherCatV1.15B25,2013-04-20 11:05:00,
2013-04-20 07:10:00,49.0,47.1,29.68,WNW,285,1.0,4.0,93,0.00,,,0.00,WeatherCatV1.15B25,2013-04-20 11:10:00,
2013-04-20 07:15:00,48.8,46.9,29.69,WNW,285,0.0,4.0,93,0.00,,,0.00,WeatherCatV1.15B25,2013-04-20 11:15:00,
2013-04-20 07:20:00,48.7,47.0,29.70,WNW,297,2.0,6.0,94,0.00,,,0.00,WeatherCatV1.15B25,2013-04-20 11:20:00,
2013-04-20 07:25:00,48.6,47.0,29.71,WNW,292,3.0,3.0,94,0.00,,,0.00,WeatherCatV1.15B25,2013-04-20 11:25:00,
2013-04-20 07:30:00,48.3,46.7,29.71,West,279,1.0,3.0,94,0.00,,,0.00,WeatherCatV1.15B25,2013-04-20 11:30:00,
2013-04-20 07:35:00,48.0,46.4,29.71,West,268,0.0,3.0,94,0.00,,,0.00,WeatherCatV1.15B25,2013-04-20 11:35:00,
2013-04-20 07:40:00,47.8,46.2,29.70,WSW,258,2.0,7.0,94,0.00,,,0.00,WeatherCatV1.15B25,2013-04-20 11:40:00,
2013-04-20 07:45:00,47.7,46.1,29.71,NW,317,0.0,0.0,94,0.00,,,0.00,WeatherCatV1.15B25,2013-04-20 11:45:00,
2013-04-20 07:50:00,47.6,46.2,29.71,West,269,1.0,1.0,95,0.00,,,0.00,WeatherCatV1.15B25,2013-04-20 11:50:00,
2013-04-20 07:55:00,47.4,45.8,29.71,WSW,255,2.0,4.0,94,0.00,,,0.00,WeatherCatV1.15B25,2013-04-20 11:55:00,
2013-04-20 08:00:00,47.0,45.1,29.72,WNW,283,0.0,6.0,93,0.00,,,0.00,WeatherCatV1.15B25,2013-04-20 12:00:00,
2013-04-20 08:05:00,46.6,44.4,29.73,West,281,3.0,9.0,92,0.00,,,0.00,WeatherCatV1.15B25,2013-04-20 12:05:00,
2013-04-20 08:10:00,46.4,44.5,29.73,WNW,282,2.0,4.0,93,0.00,,,0.00,WeatherCatV1.15B25,2013-04-20 12:10:00,
2013-04-20 08:15:00,46.1,44.2,29.74,WNW,282,0.0,3.0,93,0.00,,,0.00,WeatherCatV1.15B25,2013-04-20 12:15:00,
2013-04-20 08:20:00,46.0,44.1,29.74,West,271,1.0,4.0,93,0.00,,,0.00,WeatherCatV1.15B25,2013-04-20 12:20:00,
2013-04-20 08:25:00,45.9,44.0,29.75,SW,234,0.0,5.0,93,0.00,,,0.00,WeatherCatV1.15B25,2013-04-20 12:25:00,
2013-04-20 08:30:00,45.8,43.9,29.75,WNW,290,0.0,2.0,93,0.00,,,0.00,WeatherCatV1.15B25,2013-04-20 12:30:00,
2013-04-20 08:35:00,45.8,43.9,29.75,West,279,1.0,6.0,93,0.00,,,0.00,WeatherCatV1.15B25,2013-04-20 12:35:00,
2013-04-20 08:40:00,45.8,44.2,29.74,West,279,3.0,3.0,94,0.00,,,0.00,WeatherCatV1.15B25,2013-04-20 12:40:00,
2013-04-20 08:45:00,45.9,44.0,29.74,SW,233,2.0,5.0,93,0.00,,,0.00,WeatherCatV1.15B25,2013-04-20 12:45:00,
2013-04-20 08:50:00,45.8,43.9,29.74,West,262,1.0,4.0,93,0.00,,,0.00,WeatherCatV1.15B25,2013-04-20 12:50:00,
2013-04-20 08:55:00,46.0,44.4,29.74,NW,321,0.0,3.0,94,0.00,,,0.00,WeatherCatV1.15B25,2013-04-20 12:55:00,
2013-04-20 09:00:00,46.2,44.3,29.74,West,268,0.0,6.0,93,0.00,,,0.00,WeatherCatV1.15B25,2013-04-20 13:00:00,
2013-04-20 09:05:00,46.1,43.9,29.74,West,272,3.0,5.0,92,0.00,,,0.00,WeatherCatV1.15B25,2013-04-20 13:05:00,
2013-04-20 09:10:00,46.2,44.0,29.73,SSW,194,2.0,6.0,92,0.00,,,0.00,WeatherCatV1.15B25,2013-04-20 13:10:00,
2013-04-20 09:15:00,46.5,44.3,29.75,West,263,5.0,5.0,92,0.00,,,0.00,WeatherCatV1.15B25,2013-04-20 13:15:00,
2013-04-20 09:20:00,47.0,44.8,29.74,West,274,0.0,6.0,92,0.00,,,0.00,WeatherCatV1.15B25,2013-04-20 13:20:00,
2013-04-20 09:25:00,47.5,45.3,29.74,West,263,0.0,1.0,92,0.00,,,0.00,WeatherCatV1.15B25,2013-04-20 13:25:00,
2013-04-20 09:30:00,47.8,45.6,29.75,West,273,0.0,2.0,92,0.00,,,0.00,WeatherCatV1.15B25,2013-04-20 13:30:00,
2013-04-20 09:35:00,47.7,44.9,29.75,WSW,258,0.0,3.0,90,0.00,,,0.00,WeatherCatV1.15B25,2013-04-20 13:35:00,
2013-04-20 09:40:00,47.9,45.4,29.75,West,261,0.0,0.0,91,0.00,,,0.00,WeatherCatV1.15B25,2013-04-20 13:40:00,
2013-04-20 09:45:00,48.2,46.0,29.75,West,261,0.0,0.0,92,0.00,,,0.00,WeatherCatV1.15B25,2013-04-20 13:45:00,
2013-04-20 09:50:00,48.3,45.5,29.76,WSW,258,3.0,4.0,90,0.00,,,0.00,WeatherCatV1.15B25,2013-04-20 13:50:00,
2013-04-20 09:55:00,48.1,44.7,29.76,West,265,0.0,3.0,88,0.00,,,0.00,WeatherCatV1.15B25,2013-04-20 13:55:00,
2013-04-20 10:00:00,48.2,45.1,29.77,SW,215,1.0,4.0,89,0.00,,,0.00,WeatherCatV1.15B25,2013-04-20 14:00:00,
2013-04-20 10:05:00,48.2,44.2,29.77,WNW,287,2.0,3.0,86,0.00,,,0.00,WeatherCatV1.15B25,2013-04-20 14:05:00,
2013-04-20 10:10:00,48.3,43.7,29.77,SW,220,0.0,6.0,84,0.00,,,0.00,WeatherCatV1.15B25,2013-04-20 14:10:00,
2013-04-20 10:15:00,48.7,44.4,29.78,WNW,295,0.0,4.0,85,0.00,,,0.00,WeatherCatV1.15B25,2013-04-20 14:15:00,
2013-04-20 10:20:00,49.0,44.1,29.78,West,263,0.0,8.0,83,0.00,,,0.00,WeatherCatV1.15B25,2013-04-20 14:20:00,
2013-04-20 10:25:00,49.3,44.4,29.78,WSW,242,1.0,5.0,83,0.00,,,0.00,WeatherCatV1.15B25,2013-04-20 14:25:00,
2013-04-20 10:30:00,49.5,44.2,29.78,SSW,194,2.0,4.0,82,0.00,,,0.00,WeatherCatV1.15B25,2013-04-20 14:30:00,
2013-04-20 10:35:00,49.6,43.7,29.79,SSW,213,6.0,6.0,80,0.00,,,0.00,WeatherCatV1.15B25,2013-04-20 14:35:00,
2013-04-20 10:40:00,49.5,41.6,29.80,WSW,250,1.0,11.0,74,0.00,,,0.00,WeatherCatV1.15B25,2013-04-20 14:40:00,
2013-04-20 10:45:00,49.3,40.7,29.79,WNW,288,4.0,6.0,72,0.00,,,0.00,WeatherCatV1.15B25,2013-04-20 14:45:00,
2013-04-20 10:50:00,49.3,41.0,29.80,West,267,4.0,4.0,73,0.00,,,0.00,WeatherCatV1.15B25,2013-04-20 14:50:00,
2013-04-20 10:55:00,49.2,42.0,29.81,SW,230,2.0,3.0,76,0.00,,,0.00,WeatherCatV1.15B25,2013-04-20 14:55:00,
2013-04-20 11:00:00,49.5,41.6,29.80,WSW,244,0.0,4.0,74,0.00,,,0.00,WeatherCatV1.15B25,2013-04-20 15:00:00,
2013-04-20 11:05:00,49.7,41.4,29.81,SW,228,4.0,8.0,73,0.00,,,0.00,WeatherCatV1.15B25,2013-04-20 15:05:00,
2013-04-20 11:10:00,49.9,41.2,29.80,West,262,0.0,5.0,72,0.00,,,0.00,WeatherCatV1.15B25,2013-04-20 15:10:00,
2013-04-20 11:15:00,50.3,41.3,29.80,NW,308,5.0,11.0,71,0.00,,,0.00,WeatherCatV1.15B25,2013-04-20 15:15:00,
2013-04-20 11:20:00,50.5,40.3,29.79,SW,217,4.0,9.0,68,0.00,,,0.00,WeatherCatV1.15B25,2013-04-20 15:20:00,
2013-04-20 11:25:00,50.7,40.9,29.80,NW,318,1.0,6.0,69,0.00,,,0.00,WeatherCatV1.15B25,2013-04-20 15:25:00,
2013-04-20 11:30:00,51.1,41.3,29.80,WSW,248,2.0,3.0,69,0.00,,,0.00,WeatherCatV1.15B25,2013-04-20 15:30:00,
2013-04-20 11:35:00,51.4,40.0,29.81,WSW,242,1.0,10.0,65,0.00,,,0.00,WeatherCatV1.15B25,2013-04-20 15:35:00,
2013-04-20 11:40:00,51.6,39.8,29.81,West,277,2.0,6.0,64,0.00,,,0.00,WeatherCatV1.15B25,2013-04-20 15:40:00,
2013-04-20 11:45:00,51.4,39.2,29.81,West,280,0.0,5.0,63,0.00,,,0.00,WeatherCatV1.15B25,2013-04-20 15:45:00,
2013-04-20 11:50:00,51.6,40.2,29.81,West,275,0.0,14.0,65,0.00,,,0.00,WeatherCatV1.15B25,2013-04-20 15:50:00,
2013-04-20 11:55:00,51.9,39.3,29.81,SSW,193,0.0,7.0,62,0.00,,,0.00,WeatherCatV1.15B25,2013-04-20 15:55:00,
2013-04-20 12:00:00,52.1,39.5,29.81,West,259,2.0,9.0,62,0.00,,,0.00,WeatherCatV1.15B25,2013-04-20 16:00:00,
2013-04-20 12:05:00,52.3,39.7,29.81,West,267,6.0,7.0,62,0.00,,,0.00,WeatherCatV1.15B25,2013-04-20 16:05:00,
2013-04-20 12:10:00,52.6,38.2,29.81,NW,308,5.0,11.0,58,0.00,,,0.00,WeatherCatV1.15B25,2013-04-20 16:10:00,
2013-04-20 12:15:00,52.9,39.4,29.81,West,279,1.0,11.0,60,0.00,,,0.00,WeatherCatV1.15B25,2013-04-20 16:15:00,
2013-04-20 12:20:00,53.3,38.9,29.80,West,265,3.0,6.0,58,0.00,,,0.00,WeatherCatV1.15B25,2013-04-20 16:20:00,
2013-04-20 12:25:00,53.6,39.6,29.81,West,260,4.0,4.0,59,0.00,,,0.00,WeatherCatV1.15B25,2013-04-20 16:25:00,
2013-04-20 12:30:00,53.8,39.4,29.80,West,279,1.0,3.0,58,0.00,,,0.00,WeatherCatV1.15B25,2013-04-20 16:30:00,
2013-04-20 12:35:00,54.1,38.3,29.80,WSW,256,1.0,10.0,55,0.00,,,0.00,WeatherCatV1.15B25,2013-04-20 16:35:00,
2013-04-20 12:40:00,54.4,36.7,29.80,NW,322,2.0,11.0,51,0.00,,,0.00,WeatherCatV1.15B25,2013-04-20 16:40:00,
2013-04-20 12:45:00,54.7,36.9,29.80,WSW,240,10.0,11.0,51,0.00,,,0.00,WeatherCatV1.15B25,2013-04-20 16:45:00,
2013-04-20 12:50:00,54.8,37.0,29.80,NNW,328,5.0,9.0,51,0.00,,,0.00,WeatherCatV1.15B25,2013-04-20 16:50:00,
2013-04-20 12:55:00,54.7,37.4,29.80,West,277,2.0,5.0,52,0.00,,,0.00,WeatherCatV1.15B25,2013-04-20 16:55:00,
2013-04-20 13:00:00,54.7,36.9,29.80,NW,317,8.0,9.0,51,0.00,,,0.00,WeatherCatV1.15B25,2013-04-20 17:00:00,
2013-04-20 13:05:00,54.9,38.1,29.80,SSW,211,6.0,6.0,53,0.00,,,0.00,WeatherCatV1.15B25,2013-04-20 17:05:00,
2013-04-20 13:10:00,55.2,37.4,29.80,SW,223,1.0,5.0,51,0.00,,,0.00,WeatherCatV1.15B25,2013-04-20 17:10:00,
2013-04-20 13:15:00,55.5,37.7,29.80,WSW,246,5.0,14.0,51,0.00,,,0.00,WeatherCatV1.15B25,2013-04-20 17:15:00,
2013-04-20 13:20:00,55.6,36.7,29.80,West,276,1.0,7.0,49,0.00,,,0.00,WeatherCatV1.15B25,2013-04-20 17:20:00,
2013-04-20 13:25:00,55.5,37.2,29.80,West,267,7.0,9.0,50,0.00,,,0.00,WeatherCatV1.15B25,2013-04-20 17:25:00,
2013-04-20 13:30:00,55.5,37.2,29.80,WSW,248,3.0,5.0,50,0.00,,,0.00,WeatherCatV1.15B25,2013-04-20 17:30:00,
2013-04-20 13:35:00,55.9,37.5,29.80,NW,307,6.0,6.0,50,0.00,,,0.00,WeatherCatV1.15B25,2013-04-20 17:35:00,
2013-04-20 13:40:00,56.3,37.9,29.80,SSE,161,5.0,6.0,50,0.00,,,0.00,WeatherCatV1.15B25,2013-04-20 17:40:00,
2013-04-20 13:45:00,56.4,37.5,29.80,WSW,242,0.0,2.0,49,0.00,,,0.00,WeatherCatV1.15B25,2013-04-20 17:45:00,
2013-04-20 13:50:00,56.3,37.4,29.80,SW,229,6.0,9.0,49,0.00,,,0.00,WeatherCatV1.15B25,2013-04-20 17:50:00,
2013-04-20 13:53:00,56.2,36.2,29.80,West,274,4.0,8.0,47,0.00,,,0.00,WeatherCatV1.15B25,2013-04-20 17:53:00,
2013-04-20 13:58:00,56.1,36.1,29.80,SSE,153,3.0,11.0,47,0.00,,,0.00,WeatherCatV1.15B25,2013-04-20 17:58:00,
2013-04-20 14:03:00,56.2,35.7,29.81,WNW,288,3.0,10.0,46,0.00,,,0.00,WeatherCatV1.15B25,2013-04-20 18:03:00,
2013-04-20 14:08:00,56.4,36.4,29.81,West,267,1.0,9.0,47,0.00,,,0.00,WeatherCatV1.15B25,2013-04-20 18:08:00,
2013-04-20 14:13:00,56.5,34.3,29.81,West,267,6.0,6.0,43,0.00,,,0.00,WeatherCatV1.15B25,2013-04-20 18:13:00,
2013-04-20 14:18:00,56.6,34.4,29.81,West,261,2.0,11.0,43,0.00,,,0.00,WeatherCatV1.15B25,2013-04-20 18:18:00,
2013-04-20 14:23:00,56.8,34.0,29.81,SSW,211,2.0,8.0,42,0.00,,,0.00,WeatherCatV1.15B25,2013-04-20 18:23:00,
2013-04-20 14:28:00,56.6,33.2,29.82,South,171,3.0,12.0,41,0.00,,,0.00,WeatherCatV1.15B25,2013-04-20 18:28:00,
2013-04-20 14:33:00,56.5,32.5,29.82,NNW,344,3.0,11.0,40,0.00,,,0.00,WeatherCatV1.15B25,2013-04-20 18:33:00,
2013-04-20 14:38:00,56.2,32.8,29.82,West,271,1.0,7.0,41,0.00,,,0.00,WeatherCatV1.15B25,2013-04-20 18:38:00,
2013-04-20 14:43:00,56.1,33.3,29.82,West,271,3.0,6.0,42,0.00,,,0.00,WeatherCatV1.15B25,2013-04-20 18:43:00,
2013-04-20 14:48:00,56.2,34.0,29.82,WNW,289,0.0,11.0,43,0.00,,,0.00,WeatherCatV1.15B25,2013-04-20 18:48:00,
2013-04-20 14:53:00,56.8,34.0,29.82,WNW,286,5.0,5.0,42,0.00,,,0.00,WeatherCatV1.15B25,2013-04-20 18:53:00,
2013-04-20 14:58:00,57.0,32.9,29.82,WNW,300,3.0,8.0,40,0.00,,,0.00,WeatherCatV1.15B25,2013-04-20 18:58:00,
2013-04-20 15:03:00,56.8,34.5,29.82,SW,235,6.0,7.0,43,0.00,,,0.00,WeatherCatV1.15B25,2013-04-20 19:03:00,
2013-04-20 15:08:00,56.8,34.5,29.82,WNW,284,0.0,7.0,43,0.00,,,0.00,WeatherCatV1.15B25,2013-04-20 19:08:00,
2013-04-20 15:13:00,57.2,34.3,29.82,NW,308,3.0,4.0,42,0.00,,,0.00,WeatherCatV1.15B25,2013-04-20 19:13:00,
2013-04-20 15:18:00,57.1,34.8,29.83,West,266,1.0,4.0,43,0.00,,,0.00,WeatherCatV1.15B25,2013-04-20 19:18:00,
2013-04-20 15:23:00,56.9,35.2,29.83,West,280,0.0,5.0,44,0.00,,,0.00,WeatherCatV1.15B25,2013-04-20 19:23:00,
2013-04-20 15:28:00,57.0,34.1,29.83,SW,234,2.0,3.0,42,0.00,,,0.00,WeatherCatV1.15B25,2013-04-20 19:28:00,
2013-04-20 15:33:00,57.7,34.8,29.83,West,274,7.0,7.0,42,0.00,,,0.00,WeatherCatV1.15B25,2013-04-20 19:33:00,
2013-04-20 15:38:00,58.0,34.4,29.84,WNW,282,0.0,5.0,41,0.00,,,0.00,WeatherCatV1.15B25,2013-04-20 19:38:00,
2013-04-20 15:43:00,58.1,35.1,29.84,West,280,7.0,7.0,42,0.00,,,0.00,WeatherCatV1.15B25,2013-04-20 19:43:00,
2013-04-20 15:48:00,57.7,33.5,29.84,WNW,296,3.0,7.0,40,0.00,,,0.00,WeatherCatV1.15B25,2013-04-20 19:48:00,
2013-04-20 15:53:00,57.3,33.8,29.84,WSW,246,3.0,5.0,41,0.00,,,0.00,WeatherCatV1.15B25,2013-04-20 19:53:00,
2013-04-20 15:58:00,57.5,33.4,29.85,West,275,2.0,5.0,40,0.00,,,0.00,WeatherCatV1.15B25,2013-04-20 19:58:00,
2013-04-20 16:03:00,57.1,33.6,29.85,WSW,249,1.0,5.0,41,0.00,,,0.00,WeatherCatV1.15B25,2013-04-20 20:03:00,
2013-04-20 16:08:00,57.1,33.0,29.85,West,267,2.0,4.0,40,0.00,,,0.00,WeatherCatV1.15B25,2013-04-20 20:08:00,
2013-04-20 16:13:00,57.1,33.6,29.85,NE,54,2.0,2.0,41,0.00,,,0.00,WeatherCatV1.15B25,2013-04-20 20:13:00,
2013-04-20 16:18:00,57.4,33.9,29.86,West,275,0.0,8.0,41,0.00,,,0.00,WeatherCatV1.15B25,2013-04-20 20:18:00,
2013-04-20 16:23:00,57.3,33.8,29.86,NW,319,1.0,3.0,41,0.00,,,0.00,WeatherCatV1.15B25,2013-04-20 20:23:00,
2013-04-20 16:28:00,57.1,33.6,29.86,West,274,0.0,5.0,41,0.00,,,0.00,WeatherCatV1.15B25,2013-04-20 20:28:00,
2013-04-20 16:33:00,56.9,34.0,29.86,NW,315,1.0,2.0,42,0.00,,,0.00,WeatherCatV1.15B25,2013-04-20 20:33:00,
2013-04-20 16:38:00,56.5,32.5,29.87,SW,234,0.0,3.0,40,0.00,,,0.00,WeatherCatV1.15B25,2013-04-20 20:38:00,
2013-04-20 16:43:00,56.6,32.6,29.87,WNW,303,0.0,6.0,40,0.00,,,0.00,WeatherCatV1.15B25,2013-04-20 20:43:00,
2013-04-20 16:48:00,56.5,33.7,29.88,SSW,209,1.0,5.0,42,0.00,,,0.00,WeatherCatV1.15B25,2013-04-20 20:48:00,
2013-04-20 16:53:00,56.4,32.4,29.88,WNW,286,1.0,4.0,40,0.00,,,0.00,WeatherCatV1.15B25,2013-04-20 20:53:00,
2013-04-20 16:58:00,56.2,32.8,29.88,WSW,244,1.0,8.0,41,0.00,,,0.00,WeatherCatV1.15B25,2013-04-20 20:58:00,
2013-04-20 17:03:00,56.1,32.7,29.88,West,279,5.0,5.0,41,0.00,,,0.00,WeatherCatV1.15B25,2013-04-20 21:03:00,
2013-04-20 17:08:00,55.9,33.1,29.88,WNW,283,0.0,3.0,42,0.00,,,0.00,WeatherCatV1.15B25,2013-04-20 21:08:00,
2013-04-20 17:13:00,55.8,33.1,29.88,SW,221,1.0,7.0,42,0.00,,,0.00,WeatherCatV1.15B25,2013-04-20 21:13:00,
2013-04-20 17:18:00,55.7,32.4,29.89,WNW,294,0.0,5.0,41,0.00,,,0.00,WeatherCatV1.15B25,2013-04-20 21:18:00,
2013-04-20 17:23:00,55.7,33.0,29.89,West,274,8.0,8.0,42,0.00,,,0.00,WeatherCatV1.15B25,2013-04-20 21:23:00,
2013-04-20 17:28:00,55.8,33.1,29.89,WSW,248,2.0,4.0,42,0.00,,,0.00,WeatherCatV1.15B25,2013-04-20 21:28:00,
2013-04-20 17:33:00,55.8,32.5,29.89,SW,224,0.0,5.0,41,0.00,,,0.00,WeatherCatV1.15B25,2013-04-20 21:33:00,
2013-04-20 17:38:00,55.9,32.5,29.90,SSW,207,6.0,6.0,41,0.00,,,0.00,WeatherCatV1.15B25,2013-04-20 21:38:00,
2013-04-20 17:43:00,56.1,33.9,29.90,West,273,0.0,2.0,43,0.00,,,0.00,WeatherCatV1.15B25,2013-04-20 21:43:00,
2013-04-20 17:48:00,56.1,32.1,29.90,SSW,202,5.0,5.0,40,0.00,,,0.00,WeatherCatV1.15B25,2013-04-20 21:48:00,
2013-04-20 17:53:00,56.2,33.4,29.90,WSW,255,1.0,4.0,42,0.00,,,0.00,WeatherCatV1.15B25,2013-04-20 21:53:00,
2013-04-20 17:58:00,56.2,32.2,29.91,NNW,331,0.0,6.0,40,0.00,,,0.00,WeatherCatV1.15B25,2013-04-20 21:58:00,
2013-04-20 18:03:00,56.0,32.0,29.91,SW,231,2.0,2.0,40,0.00,,,0.00,WeatherCatV1.15B25,2013-04-20 22:03:00,
2013-04-20 18:08:00,55.9,32.5,29.91,WSW,254,1.0,4.0,41,0.00,,,0.00,WeatherCatV1.15B25,2013-04-20 22:08:00,
2013-04-20 18:13:00,55.8,31.8,29.91,SW,231,4.0,6.0,40,0.00,,,0.00,WeatherCatV1.15B25,2013-04-20 22:13:00,
2013-04-20 18:18:00,55.8,31.2,29.91,West,262,4.0,7.0,39,0.00,,,0.00,WeatherCatV1.15B25,2013-04-20 22:18:00,
2013-04-20 18:23:00,55.7,32.4,29.92,West,261,4.0,5.0,41,0.00,,,0.00,WeatherCatV1.15B25,2013-04-20 22:23:00,
2013-04-20 18:28:00,55.7,32.4,29.92,West,272,0.0,0.0,41,0.00,,,0.00,WeatherCatV1.15B25,2013-04-20 22:28:00,
2013-04-20 18:33:00,55.7,31.8,29.92,SW,236,1.0,3.0,40,0.00,,,0.00,WeatherCatV1.15B25,2013-04-20 22:33:00,
2013-04-20 18:38:00,55.7,31.8,29.92,WSW,240,3.0,5.0,40,0.00,,,0.00,WeatherCatV1.15B25,2013-04-20 22:38:00,
2013-04-20 18:43:00,55.6,31.0,29.92,West,268,2.0,8.0,39,0.00,,,0.00,WeatherCatV1.15B25,2013-04-20 22:43:00,
2013-04-20 18:48:00,55.5,32.2,29.93,WSW,256,0.0,2.0,41,0.00,,,0.00,WeatherCatV1.15B25,2013-04-20 22:48:00,
2013-04-20 18:53:00,55.4,33.3,29.93,WSW,256,1.0,1.0,43,0.00,,,0.00,WeatherCatV1.15B25,2013-04-20 22:53:00,
2013-04-20 18:58:00,55.3,30.8,29.93,WSW,256,0.0,3.0,39,0.00,,,0.00,WeatherCatV1.15B25,2013-04-20 22:58:00,
2013-04-20 19:03:00,55.2,32.5,29.93,WSW,256,0.0,0.0,42,0.00,,,0.00,WeatherCatV1.15B25,2013-04-20 23:03:00,
2013-04-20 19:08:00,55.1,32.4,29.94,West,269,0.0,4.0,42,0.00,,,0.00,WeatherCatV1.15B25,2013-04-20 23:08:00,
2013-04-20 19:13:00,55.0,31.1,29.94,WSW,254,0.0,5.0,40,0.00,,,0.00,WeatherCatV1.15B25,2013-04-20 23:13:00,
2013-04-20 19:18:00,54.9,30.4,29.94,West,263,1.0,3.0,39,0.00,,,0.00,WeatherCatV1.15B25,2013-04-20 23:18:00,
2013-04-20 19:23:00,54.9,30.4,29.94,West,259,3.0,6.0,39,0.00,,,0.00,WeatherCatV1.15B25,2013-04-20 23:23:00,
2013-04-20 19:28:00,54.7,30.2,29.95,WNW,296,0.0,8.0,39,0.00,,,0.00,WeatherCatV1.15B25,2013-04-20 23:28:00,
2013-04-20 19:33:00,54.5,30.1,29.95,SW,225,1.0,1.0,39,0.00,,,0.00,WeatherCatV1.15B25,2013-04-20 23:33:00,
2013-04-20 19:38:00,54.2,31.6,29.96,South,184,0.0,1.0,42,0.00,,,0.00,WeatherCatV1.15B25,2013-04-20 23:38:00,
2013-04-20 19:43:00,54.0,32.0,29.96,South,184,0.0,0.0,43,0.00,,,0.00,WeatherCatV1.15B25,2013-04-20 23:43:00,
2013-04-20 19:48:00,53.7,31.2,29.97,South,184,0.0,1.0,42,0.00,,,0.00,WeatherCatV1.15B25,2013-04-20 23:48:00,
2013-04-20 19:53:00,53.4,31.5,29.97,South,184,0.0,0.0,43,0.00,,,0.00,WeatherCatV1.15B25,2013-04-20 23:53:00,
2013-04-20 19:58:00,53.1,31.8,29.98,WNW,300,1.0,1.0,44,0.00,,,0.00,WeatherCatV1.15B25,2013-04-20 23:58:00,
2013-04-20 20:03:00,52.9,32.7,29.98,WSW,249,0.0,0.0,46,0.00,,,0.00,WeatherCatV1.15B25,2013-04-21 00:03:00,
2013-04-20 20:08:00,52.8,31.5,29.99,West,265,0.0,1.0,44,0.00,,,0.00,WeatherCatV1.15B25,2013-04-21 00:08:00,
2013-04-20 20:13:00,52.6,31.3,29.99,WNW,283,0.0,1.0,44,0.00,,,0.00,WeatherCatV1.15B25,2013-04-21 00:13:00,
2013-04-20 20:18:00,52.4,32.2,29.99,WNW,283,0.0,1.0,46,0.00,,,0.00,WeatherCatV1.15B25,2013-04-21 00:18:00,
2013-04-20 20:23:00,52.3,31.6,30.00,SSW,193,4.0,4.0,45,0.00,,,0.00,WeatherCatV1.15B25,2013-04-21 00:23:00,
2013-04-20 20:28:00,52.1,30.3,30.00,SSW,196,0.0,3.0,43,0.00,,,0.00,WeatherCatV1.15B25,2013-04-21 00:28:00,
2013-04-20 20:33:00,52.0,30.8,30.01,WSW,254,1.0,2.0,44,0.00,,,0.00,WeatherCatV1.15B25,2013-04-21 00:33:00,
2013-04-20 20:38:00,51.9,30.7,30.02,West,271,3.0,4.0,44,0.00,,,0.00,WeatherCatV1.15B25,2013-04-21 00:38:00,
2013-04-20 20:43:00,51.8,30.0,30.02,West,278,0.0,3.0,43,0.00,,,0.00,WeatherCatV1.15B25,2013-04-21 00:43:00,
2013-04-20 20:48:00,51.6,30.4,30.03,West,279,0.0,2.0,44,0.00,,,0.00,WeatherCatV1.15B25,2013-04-21 00:48:00,
2013-04-20 20:53:00,51.5,31.4,30.03,West,279,0.0,1.0,46,0.00,,,0.00,WeatherCatV1.15B25,2013-04-21 00:53:00,
2013-04-20 20:58:00,51.2,30.6,30.04,West,267,2.0,3.0,45,0.00,,,0.00,WeatherCatV1.15B25,2013-04-21 00:58:00,
2013-04-20 21:03:00,51.0,29.9,30.04,West,278,0.0,3.0,44,0.00,,,0.00,WeatherCatV1.15B25,2013-04-21 01:03:00,
2013-04-20 21:08:00,50.9,29.8,30.04,SW,236,0.0,3.0,44,0.00,,,0.00,WeatherCatV1.15B25,2013-04-21 01:08:00,
2013-04-20 21:13:00,50.8,29.7,30.05,WSW,237,1.0,3.0,44,0.00,,,0.00,WeatherCatV1.15B25,2013-04-21 01:13:00,
2013-04-20 21:18:00,50.7,30.1,30.05,WSW,253,3.0,7.0,45,0.00,,,0.00,WeatherCatV1.15B25,2013-04-21 01:18:00,
2013-04-20 21:23:00,50.6,30.1,30.05,West,267,2.0,3.0,45,0.00,,,0.00,WeatherCatV1.15B25,2013-04-21 01:23:00,
2013-04-20 21:28:00,50.4,29.9,30.06,West,271,0.0,2.0,45,0.00,,,0.00,WeatherCatV1.15B25,2013-04-21 01:28:00,
2013-04-20 21:33:00,50.3,29.8,30.06,West,262,1.0,3.0,45,0.00,,,0.00,WeatherCatV1.15B25,2013-04-21 01:33:00,
2013-04-20 21:38:00,50.2,29.7,30.06,WNW,290,0.0,0.0,45,0.00,,,0.00,WeatherCatV1.15B25,2013-04-21 01:38:00,
2013-04-20 21:43:00,50.1,30.7,30.07,WNW,290,2.0,2.0,47,0.00,,,0.00,WeatherCatV1.15B25,2013-04-21 01:43:00,
2013-04-20 21:48:00,49.8,28.2,30.07,West,265,2.0,6.0,43,0.00,,,0.00,WeatherCatV1.15B25,2013-04-21 01:48:00,
2013-04-20 21:53:00,49.7,28.7,30.08,SSW,193,2.0,4.0,44,0.00,,,0.00,WeatherCatV1.15B25,2013-04-21 01:53:00,
2013-04-20 21:58:00,49.6,28.0,30.08,West,276,2.0,5.0,43,0.00,,,0.00,WeatherCatV1.15B25,2013-04-21 01:58:00,
2013-04-20 22:03:00,49.5,27.9,30.08,NW,323,0.0,5.0,43,0.00,,,0.00,WeatherCatV1.15B25,2013-04-21 02:03:00,
2013-04-20 22:08:00,49.3,27.8,30.09,ENE,65,1.0,6.0,43,0.00,,,0.00,WeatherCatV1.15B25,2013-04-21 02:08:00,
2013-04-20 22:13:00,49.2,27.7,30.09,WNW,284,1.0,3.0,43,0.00,,,0.00,WeatherCatV1.15B25,2013-04-21 02:13:00,
2013-04-20 22:18:00,49.0,27.5,30.09,NW,317,0.0,8.0,43,0.00,,,0.00,WeatherCatV1.15B25,2013-04-21 02:18:00,
2013-04-20 22:23:00,48.8,27.9,30.09,West,275,2.0,3.0,44,0.00,,,0.00,WeatherCatV1.15B25,2013-04-21 02:23:00,
2013-04-20 22:28:00,48.7,27.2,30.10,SSW,208,5.0,5.0,43,0.00,,,0.00,WeatherCatV1.15B25,2013-04-21 02:28:00,
2013-04-20 22:33:00,48.5,27.0,30.10,West,263,2.0,5.0,43,0.00,,,0.00,WeatherCatV1.15B25,2013-04-21 02:33:00,
2013-04-20 22:38:00,48.3,27.4,30.10,WSW,258,0.0,5.0,44,0.00,,,0.00,WeatherCatV1.15B25,2013-04-21 02:38:00,
2013-04-20 22:43:00,48.2,27.3,30.10,WNW,299,7.0,8.0,44,0.00,,,0.00,WeatherCatV1.15B25,2013-04-21 02:43:00,
2013-04-20 22:48:00,48.0,27.1,30.11,West,275,2.0,6.0,44,0.00,,,0.00,WeatherCatV1.15B25,2013-04-21 02:48:00,
2013-04-20 22:53:00,47.9,27.0,30.11,West,273,4.0,7.0,44,0.00,,,0.00,WeatherCatV1.15B25,2013-04-21 02:53:00,
2013-04-20 22:58:00,47.6,27.3,30.11,SW,227,5.0,7.0,45,0.00,,,0.00,WeatherCatV1.15B25,2013-04-21 02:58:00,
2013-04-20 23:03:00,47.4,27.7,30.11,SE,140,1.0,3.0,46,0.00,,,0.00,WeatherCatV1.15B25,2013-04-21 03:03:00,
2013-04-20 23:08:00,47.2,27.5,30.11,WSW,245,2.0,3.0,46,0.00,,,0.00,WeatherCatV1.15B25,2013-04-21 03:08:00,
2013-04-20 23:13:00,47.0,27.3,30.12,WSW,252,0.0,0.0,46,0.00,,,0.00,WeatherCatV1.15B25,2013-04-21 03:13:00,
2013-04-20 23:18:00,46.9,27.7,30.12,WSW,250,7.0,11.0,47,0.00,,,0.00,WeatherCatV1.15B25,2013-04-21 03:18:00,
2013-04-20 23:23:00,46.7,28.1,30.13,West,275,3.0,4.0,48,0.00,,,0.00,WeatherCatV1.15B25,2013-04-21 03:23:00,
2013-04-20 23:28:00,46.4,26.8,30.13,WNW,294,3.0,5.0,46,0.00,,,0.00,WeatherCatV1.15B25,2013-04-21 03:28:00,
2013-04-20 23:33:00,46.2,26.6,30.13,West,276,1.0,6.0,46,0.00,,,0.00,WeatherCatV1.15B25,2013-04-21 03:33:00,
2013-04-20 23:38:00,45.9,25.8,30.14,West,272,2.0,11.0,45,0.00,,,0.00,WeatherCatV1.15B25,2013-04-21 03:38:00,
2013-04-20 23:43:00,45.7,25.6,30.14,West,269,6.0,11.0,45,0.00,,,0.00,WeatherCatV1.15B25,2013-04-21 03:43:00,
2013-04-20 23:48:00,45.5,25.4,30.15,WNW,285,3.0,11.0,45,0.00,,,0.00,WeatherCatV1.15B25,2013-04-21 03:48:00,
2013-04-20 23:53:00,45.3,25.2,30.15,West,259,7.0,7.0,45,0.00,,,0.00,WeatherCatV1.15B25,2013-04-21 03:53:00,
2013-04-20 23:58:00,45.1,25.6,30.16,WNW,293,5.0,6.0,46,0.00,,,0.00,WeatherCatV1.15B25,2013-04-21 03:58:00,